Time;durP1;ratioP1;P1;durP2;ratioP2;P2;SDS_P1;SDS_P2;PMS_P1;PMS_P2;Temp;Humidity;BMP_temperature;BMP_pressure;BME280_temperature;BME280_humidity;BME280_pressure;Samples;Min_cycle;Max_cycle;Signal;HPM_P1;HPM_P2
2024/02/06 00:01:51;;;;;;;10.50;5.15;;;10.00;99.90;;;9.31;100.00;102131.81;4170159;28;20025;-72
2024/02/06 00:03:52;;;;;;;9.95;6.10;;;10.00;99.90;;;9.29;100.00;102126.66;4170027;28;20029;-71
2024/02/06 00:05:52;;;;;;;7.70;5.82;;;10.00;99.90;;;9.29;100.00;102120.53;4169967;28;20030;-72
2024/02/06 00:07:53;;;;;;;9.07;5.75;;;10.00;99.90;;;9.30;100.00;102125.69;4168977;28;20034;-72
2024/02/06 00:09:54;;;;;;;10.20;6.25;;;10.00;99.90;;;9.33;100.00;102125.47;4170026;28;20037;-71
2024/02/06 00:11:55;;;;;;;8.43;5.78;;;10.00;99.90;;;9.35;100.00;102130.63;4169924;28;20037;-71
2024/02/06 00:13:56;;;;;;;9.75;5.15;;;10.00;99.90;;;9.31;100.00;102118.66;4170132;28;20033;-72
2024/02/06 00:16:00;;;;;;;11.05;5.65;;;10.00;99.90;;;9.32;100.00;102120.31;4168840;28;20026;-72
2024/02/06 00:18:01;;;;;;;9.07;5.63;;;10.00;99.90;;;9.32;100.00;102115.88;4169825;28;20489;-71
2024/02/06 00:20:02;;;;;;;9.65;5.43;;;10.00;99.90;;;9.31;100.00;102113.38;4170039;28;20037;-71
2024/02/06 00:22:03;;;;;;;11.93;6.47;;;10.00;99.90;;;9.31;100.00;102114.22;4152238;28;20045;-72
2024/02/06 00:24:04;;;;;;;10.40;5.82;;;10.00;99.90;;;9.29;100.00;102117.91;4168739;28;20120;-72
2024/02/06 00:26:05;;;;;;;7.80;5.75;;;10.00;99.90;;;9.32;100.00;102117.66;4169826;28;20040;-72
2024/02/06 00:28:06;;;;;;;11.52;6.53;;;10.00;99.90;;;9.32;100.00;102120.31;4169767;28;20041;-72
2024/02/06 00:30:07;;;;;;;9.85;5.75;;;10.00;99.90;;;9.33;100.00;102114.94;4168744;28;20084;-71
2024/02/06 00:32:08;;;;;;;8.93;6.00;;;10.00;99.90;;;9.38;100.00;102119.84;4169718;28;20029;-71
2024/02/06 00:34:09;;;;;;;9.68;5.53;;;10.00;99.90;;;9.34;100.00;102116.63;4168017;28;20083;-72
2024/02/06 00:36:10;;;;;;;9.98;5.85;;;10.10;99.90;;;9.36;100.00;102117.34;4169556;28;20029;-71
2024/02/06 00:38:14;;;;;;;11.85;5.70;;;10.10;99.90;;;9.32;100.00;102115.03;4169794;28;20013;-72
2024/02/06 00:40:15;;;;;;;11.25;5.35;;;10.00;99.90;;;9.35;100.00;102110.38;4169703;28;20029;-72
2024/02/06 00:42:16;;;;;;;8.90;5.28;;;10.10;99.90;;;9.35;100.00;102113.03;4169496;28;20032;-71
2024/02/06 00:44:19;;;;;;;10.50;5.50;;;10.10;99.90;;;9.38;100.00;102106.69;4168373;28;20026;-72
2024/02/06 00:46:19;;;;;;;12.45;5.90;;;10.10;99.90;;;9.35;100.00;102104.28;4169366;28;20056;-71
2024/02/06 00:48:20;;;;;;;12.07;5.50;;;10.00;99.90;;;9.33;100.00;102100.94;4169274;28;20037;-71
2024/02/06 00:50:21;;;;;;;9.65;5.32;;;10.10;99.90;;;9.34;100.00;102102.63;4169194;28;20022;-72
2024/02/06 00:52:22;;;;;;;10.90;5.50;;;10.00;99.90;;;9.34;100.00;102097.34;4169498;28;20022;-71
2024/02/06 00:54:23;;;;;;;9.32;5.75;;;10.00;99.90;;;9.35;100.00;102089.31;4169559;28;20060;-71
2024/02/06 00:56:24;;;;;;;12.93;5.95;;;10.00;99.90;;;9.37;100.00;102091.84;4168984;28;20397;-71
2024/02/06 00:58:24;;;;;;;10.98;5.20;;;10.00;99.90;;;9.35;100.00;102084.06;4168234;28;20029;-71
2024/02/06 01:00:25;;;;;;;11.48;5.75;;;10.00;99.90;;;9.33;100.00;102082.50;4169364;28;20045;-71
2024/02/06 01:02:26;;;;;;;14.57;5.00;;;10.10;99.90;;;9.35;100.00;102081.41;4168087;28;20108;-71
2024/02/06 01:04:27;;;;;;;9.32;4.90;;;10.00;99.90;;;9.33;100.00;102075.44;4167957;28;20022;-71
2024/02/06 01:06:28;;;;;;;10.75;4.82;;;10.10;99.90;;;9.35;100.00;102070.88;4167812;28;20031;-72
2024/02/06 01:08:29;;;;;;;7.40;4.60;;;10.10;99.90;;;9.33;100.00;102058.81;4167979;28;20079;-72
2024/02/06 01:10:30;;;;;;;9.70;5.05;;;10.10;99.90;;;9.34;100.00;102060.50;4167823;28;20517;-72
2024/02/06 01:12:31;;;;;;;10.90;5.15;;;10.00;99.90;;;9.33;100.00;102062.28;4167585;28;20504;-72
2024/02/06 01:14:31;;;;;;;9.00;4.60;;;10.00;99.90;;;9.36;100.00;102058.56;4167891;28;20472;-72
2024/02/06 01:16:32;;;;;;;8.80;4.72;;;10.10;99.90;;;9.37;100.00;102057.63;4168961;28;20029;-72
2024/02/06 01:18:34;;;;;;;12.88;5.47;;;10.10;99.90;;;9.34;100.00;102056.06;4168005;28;20029;-72
2024/02/06 01:20:35;;;;;;;9.00;5.13;;;10.10;99.90;;;9.36;100.00;102050.66;4167599;28;20091;-71
2024/02/06 01:22:36;;;;;;;8.25;5.35;;;10.10;99.90;;;9.36;100.00;102055.94;4169111;28;20456;-72
2024/02/06 01:24:37;;;;;;;10.48;6.15;;;10.10;99.90;;;9.35;100.00;102052.44;4169027;28;20060;-71
2024/02/06 01:26:37;;;;;;;7.65;4.68;;;10.00;99.90;;;9.36;100.00;102048.03;4167709;28;20055;-72
2024/02/06 01:28:38;;;;;;;7.55;5.28;;;10.10;99.90;;;9.33;100.00;102041.22;4168915;28;20040;-71
2024/02/06 01:30:39;;;;;;;13.00;4.82;;;10.00;99.90;;;9.33;100.00;102043.84;4167602;28;20045;-72
2024/02/06 01:32:40;;;;;;;8.13;4.60;;;10.10;99.90;;;9.38;100.00;102052.22;4167610;28;20021;-72
2024/02/06 01:34:41;;;;;;;9.15;5.45;;;10.10;99.90;;;9.32;100.00;102033.41;4168888;28;20021;-71
2024/02/06 01:36:42;;;;;;;8.43;5.22;;;10.10;99.90;;;9.39;100.00;102045.16;4168891;28;20024;-72
2024/02/06 01:38:43;;;;;;;9.52;4.70;;;10.10;99.90;;;9.38;100.00;102041.69;4168761;28;20061;-72
2024/02/06 01:40:44;;;;;;;12.43;4.93;;;10.10;99.90;;;9.40;100.00;102049.50;4167411;28;20051;-71
2024/02/06 01:42:47;;;;;;;14.45;5.25;;;10.10;99.90;;;9.38;100.00;102041.69;4168830;28;20037;-72
2024/02/06 01:44:48;;;;;;;11.93;5.38;;;10.10;99.90;;;9.33;100.00;102029.84;4167564;28;20040;-71
2024/02/06 01:46:50;;;;;;;7.00;5.15;;;10.10;99.90;;;9.37;100.00;102034.78;4168906;28;20128;-72
2024/02/06 01:48:51;;;;;;;10.65;5.05;;;10.10;99.90;;;9.37;100.00;102026.03;4167208;28;20064;-72
2024/02/06 01:50:52;;;;;;;10.35;5.93;;;10.10;99.90;;;9.39;100.00;102029.38;4168505;28;20031;-72
2024/02/06 01:52:54;;;;;;;11.20;6.68;;;10.10;99.90;;;9.39;100.00;102032.00;4168712;28;20108;-72
2024/02/06 01:54:55;;;;;;;14.73;4.95;;;10.10;99.90;;;9.38;100.00;102025.03;4167449;28;20115;-72
2024/02/06 01:56:56;;;;;;;10.88;5.20;;;10.10;99.90;;;9.40;100.00;102028.41;4150905;28;20022;-72
2024/02/06 01:58:58;;;;;;;13.10;5.57;;;10.10;99.90;;;9.41;100.00;102024.81;4167321;28;20025;-72
2024/02/06 02:00:59;;;;;;;12.20;5.70;;;10.10;99.90;;;9.38;100.00;102027.69;4168635;28;20104;-71
2024/02/06 02:03:01;;;;;;;7.95;4.70;;;10.10;99.90;;;9.40;100.00;102025.78;4167378;28;20148;-71
2024/02/06 02:05:02;;;;;;;13.20;5.10;;;10.10;99.90;;;9.37;100.00;102018.97;4167168;28;20187;-71
2024/02/06 02:07:04;;;;;;;10.55;5.13;;;10.10;99.90;;;9.40;100.00;102023.16;4167449;28;20112;-72
2024/02/06 02:09:08;;;;;;;13.63;5.20;;;10.10;99.90;;;9.41;100.00;102024.81;4169198;28;20508;-72
2024/02/06 02:11:09;;;;;;;11.88;4.97;;;10.10;99.90;;;9.41;100.00;102028.28;4170354;28;20124;-72
2024/02/06 02:13:10;;;;;;;9.02;4.85;;;10.10;99.90;;;9.41;100.00;102025.66;4171769;28;20026;-71
2024/02/06 02:15:13;;;;;;;9.27;3.90;;;10.10;99.90;;;9.39;100.00;102019.69;4170729;28;20022;-72
2024/02/06 02:17:14;;;;;;;9.57;5.10;;;10.10;99.90;;;9.39;100.00;102018.84;4170782;28;20483;-72
2024/02/06 02:19:15;;;;;;;9.30;4.82;;;10.10;99.90;;;9.38;100.00;102017.16;4170571;28;20033;-72
2024/02/06 02:21:16;;;;;;;11.55;4.63;;;10.10;99.90;;;9.43;100.00;102028.19;4171512;28;20038;-71
2024/02/06 02:23:17;;;;;;;11.20;4.53;;;10.10;99.90;;;9.39;100.00;102021.47;4171831;28;20493;-72
2024/02/06 02:25:19;;;;;;;15.00;4.72;;;10.10;99.90;;;9.41;100.00;102025.66;4171830;28;20485;-72
2024/02/06 02:27:20;;;;;;;9.52;4.85;;;10.10;99.90;;;9.42;100.00;102026.50;4170469;28;20033;-71
2024/02/06 02:29:22;;;;;;;6.13;4.53;;;10.10;99.90;;;9.39;100.00;102013.56;4170324;28;20051;-72
2024/02/06 02:31:24;;;;;;;9.18;4.32;;;10.10;99.90;;;9.39;100.00;102010.94;4170594;28;20052;-72
2024/02/06 02:33:25;;;;;;;10.07;4.38;;;10.10;99.90;;;9.41;100.00;102016.91;4170213;28;20124;-72
2024/02/06 02:35:29;;;;;;;11.07;4.88;;;10.10;99.90;;;9.40;100.00;102005.56;4170076;28;20018;-72
2024/02/06 02:37:30;;;;;;;;;;;10.10;99.90;;;9.34;100.00;102002.56;4171901;28;20025;-71
2024/02/06 02:39:31;;;;;;;10.48;4.32;;;10.10;99.90;;;9.35;100.00;102007.69;4170117;28;19916;-72
2024/02/06 02:41:32;;;;;;;9.52;4.07;;;10.10;99.90;;;9.38;100.00;102012.72;4170348;28;20025;-71
2024/02/06 02:43:33;;;;;;;9.32;4.05;;;10.10;99.90;;;9.34;100.00;101999.94;4171483;28;20025;-71
2024/02/06 02:45:34;;;;;;;11.57;5.32;;;10.10;99.90;;;9.39;100.00;102008.31;4170185;28;20052;-71
2024/02/06 02:47:35;;;;;;;9.68;5.25;;;10.10;99.90;;;9.41;100.00;102009.00;4170167;28;20050;-71
2024/02/06 02:49:35;;;;;;;10.85;4.70;;;10.10;99.90;;;9.41;100.00;102016.91;4171207;28;20025;-72
2024/02/06 02:51:36;;;;;;;7.78;3.80;;;10.10;99.90;;;9.40;100.00;102012.63;4169943;28;20037;-71
2024/02/06 02:53:37;;;;;;;12.07;4.40;;;10.10;99.90;;;9.41;100.00;102011.66;4169993;28;20108;-72
2024/02/06 02:55:38;;;;;;;8.07;4.50;;;10.10;99.90;;;9.39;100.00;102003.03;4171278;28;20481;-71
2024/02/06 02:57:39;;;;;;;7.18;3.97;;;10.10;99.90;;;9.40;100.00;102002.09;4170201;28;20025;-71
2024/02/06 02:59:40;;;;;;;8.20;5.07;;;10.10;99.90;;;9.37;100.00;101997.91;4171003;28;20028;-71
2024/02/06 03:01:41;;;;;;;9.02;4.22;;;10.10;99.90;;;9.37;100.00;101991.78;4170002;28;20491;-72
2024/02/06 03:03:42;;;;;;;13.52;4.85;;;10.10;99.90;;;9.41;100.00;101990.56;4170993;28;20033;-71
2024/02/06 03:05:43;;;;;;;10.15;5.13;;;10.10;99.90;;;9.38;100.00;101982.91;4169752;28;20032;-71
2024/02/06 03:07:44;;;;;;;10.90;4.97;;;10.10;99.90;;;9.40;100.00;101991.56;4169868;28;20037;-72
2024/02/06 03:09:45;;;;;;;13.35;4.55;;;10.10;99.90;;;9.40;100.00;101987.13;4169753;28;20386;-72
2024/02/06 03:11:45;;;;;;;9.77;6.00;;;10.10;99.90;;;9.39;100.00;101976.69;4171012;28;20096;-72
2024/02/06 03:13:46;;;;;;;10.15;4.35;;;10.10;99.90;;;9.38;100.00;101981.13;4171030;28;20440;-71
2024/02/06 03:15:48;;;;;;;8.40;4.47;;;10.10;99.90;;;9.40;100.00;101986.28;4169658;28;20115;-71
2024/02/06 03:17:51;;;;;;;8.45;4.95;;;10.10;99.90;;;9.36;100.00;101984.84;4170456;28;20024;-71
2024/02/06 03:19:53;;;;;;;9.73;5.05;;;10.10;99.90;;;9.34;100.00;101984.97;4166468;28;20025;-71
2024/02/06 03:21:54;;;;;;;9.40;4.18;;;10.10;99.90;;;9.36;100.00;101983.03;4153132;28;20189;-71
2024/02/06 03:23:55;;;;;;;9.90;4.60;;;10.00;99.90;;;9.35;100.00;101981.34;4170827;28;20030;-71
2024/02/06 03:25:56;;;;;;;10.02;4.82;;;10.00;99.90;;;9.33;100.00;101975.38;4170792;28;20026;-71
2024/02/06 03:27:56;;;;;;;9.48;5.00;;;10.00;99.90;;;9.31;100.00;101976.47;4170819;28;20033;-71
2024/02/06 03:29:57;;;;;;;8.05;4.43;;;10.00;99.90;;;9.31;100.00;101979.94;4170613;28;20033;-72
2024/02/06 03:31:58;;;;;;;10.60;5.55;;;10.00;99.90;;;9.32;100.00;101972.84;4169506;28;20026;-71
2024/02/06 03:33:59;;;;;;;8.45;4.80;;;10.00;99.90;;;9.30;100.00;101970.34;4170564;28;20075;-72
2024/02/06 03:36:00;;;;;;;8.95;4.32;;;10.00;99.90;;;9.29;100.00;101970.44;4170469;28;20025;-71
2024/02/06 03:38:01;;;;;;;12.15;5.22;;;10.00;99.90;;;9.25;100.00;101964.59;4169645;28;20083;-71
2024/02/06 03:40:02;;;;;;;9.15;4.75;;;10.00;99.90;;;9.25;100.00;101964.59;4169314;28;20037;-71
2024/02/06 03:42:04;;;;;;;13.82;5.05;;;10.00;99.90;;;9.28;100.00;101961.75;4169282;28;20037;-71
2024/02/06 03:44:06;;;;;;;11.18;5.18;;;10.00;99.90;;;9.27;100.00;101962.69;4169184;28;20034;-72
2024/02/06 03:46:07;;;;;;;10.98;4.80;;;10.00;99.90;;;9.25;100.00;101955.88;4169301;28;20029;-71
2024/02/06 03:48:07;;;;;;;13.32;4.68;;;10.00;99.90;;;9.29;100.00;101957.28;4169522;28;20052;-72
2024/02/06 03:50:09;;;;;;;12.45;4.70;;;10.00;99.90;;;9.29;100.00;101955.50;4170126;28;20037;-72
2024/02/06 03:52:10;;;;;;;8.13;5.05;;;10.00;99.90;;;9.28;100.00;101945.09;4170389;28;20029;-72
2024/02/06 03:54:11;;;;;;;11.18;5.20;;;10.00;99.90;;;9.29;100.00;101955.50;4170605;28;20025;-72
2024/02/06 03:56:16;;;;;;;8.23;4.68;;;10.00;99.90;;;9.30;100.00;101954.56;4170396;28;20500;-72
2024/02/06 03:58:17;;;;;;;11.15;4.05;;;10.00;99.90;;;9.31;100.00;101952.75;4170267;28;20029;-71
2024/02/06 04:00:18;;;;;;;13.57;5.22;;;10.00;99.90;;;9.27;100.00;101944.25;4170163;28;20537;-72
2024/02/06 04:02:21;;;;;;;14.98;4.93;;;10.00;99.90;;;9.30;100.00;101946.66;4169164;28;20449;-71
2024/02/06 04:04:22;;;;;;;14.67;5.43;;;10.00;99.90;;;9.29;100.00;101938.84;4168923;28;20029;-72
2024/02/06 04:06:23;;;;;;;14.25;5.65;;;10.00;99.90;;;9.29;100.00;101934.44;4170061;28;20252;-71
2024/02/06 04:08:24;;;;;;;14.32;4.78;;;10.00;99.90;;;9.31;100.00;101934.31;4168407;28;20031;-72
2024/02/06 04:10:26;;;;;;;10.80;5.53;;;10.00;99.90;;;9.30;100.00;101932.66;4170179;28;20085;-72
2024/02/06 04:12:27;;;;;;;14.30;5.35;;;10.00;99.90;;;9.31;100.00;101929.91;4168876;28;20024;-71
2024/02/06 04:14:27;;;;;;;15.95;6.47;;;10.00;99.90;;;9.34;100.00;101934.94;4170084;28;20021;-72
2024/02/06 04:16:28;;;;;;;12.02;5.88;;;10.00;99.90;;;9.32;100.00;101928.09;4170127;28;20087;-72
2024/02/06 04:18:29;;;;;;;10.93;5.00;;;10.00;99.90;;;9.33;100.00;101933.25;4168903;28;20021;-71
2024/02/06 04:20:31;;;;;;;12.25;5.35;;;10.00;99.90;;;9.33;100.00;101933.25;4169894;28;20022;-72
2024/02/06 04:22:32;;;;;;;11.93;5.53;;;10.00;99.90;;;9.33;100.00;101932.41;4169973;28;20108;-72
2024/02/06 04:24:33;;;;;;;11.75;5.20;;;10.00;99.90;;;9.36;100.00;101942.69;4169805;28;20026;-72
2024/02/06 04:26:35;;;;;;;15.25;5.88;;;10.10;99.90;;;9.36;100.00;101932.16;4168630;28;20021;-71
2024/02/06 04:28:36;;;;;;;10.15;4.28;;;10.10;99.90;;;9.37;100.00;101928.59;4184953;28;20029;-72
2024/02/06 04:30:36;;;;;;;10.05;4.78;;;10.00;99.90;;;9.36;100.00;101921.63;4168670;28;20037;-71
2024/02/06 04:32:38;;;;;;;11.43;4.35;;;10.10;99.90;;;9.40;100.00;101923.09;4168227;28;20080;-71
2024/02/06 04:34:39;;;;;;;9.82;4.80;;;10.10;99.90;;;9.38;100.00;101920.56;4169934;28;20127;-72
2024/02/06 04:36:40;;;;;;;12.30;4.88;;;10.10;99.90;;;9.34;100.00;101908.59;4169773;28;20493;-72
2024/02/06 04:38:41;;;;;;;11.60;5.07;;;10.10;99.90;;;9.37;100.00;101902.25;4148543;28;20118;-72
2024/02/06 04:40:42;;;;;;;12.95;5.50;;;10.00;99.90;;;9.35;100.00;101902.34;4184887;28;20033;-72
2024/02/06 04:42:42;;;;;;;13.90;4.90;;;10.10;99.90;;;9.34;100.00;101902.50;4169778;28;20025;-71
2024/02/06 04:44:43;;;;;;;14.35;5.43;;;10.10;99.90;;;9.34;100.00;101905.13;4169707;28;20044;-72
2024/02/06 04:46:44;;;;;;;10.45;5.25;;;10.10;99.90;;;9.32;100.00;101899.13;4169385;28;20033;-72
2024/02/06 04:48:45;;;;;;;7.05;4.03;;;10.00;99.90;;;9.32;100.00;101899.13;4168115;28;20053;-72
2024/02/06 04:50:46;;;;;;;12.18;4.68;;;10.00;99.90;;;9.30;100.00;101901.88;4169322;28;20025;-71
2024/02/06 04:52:47;;;;;;;8.73;4.30;;;10.00;99.90;;;9.30;100.00;101901.88;4169496;28;20030;-71
2024/02/06 04:54:48;;;;;;;10.68;5.28;;;10.00;99.90;;;9.28;100.00;101897.72;4169350;28;20021;-72
2024/02/06 04:56:49;;;;;;;8.55;4.68;;;10.00;99.90;;;9.26;100.00;101899.59;4168270;28;20056;-72
2024/02/06 04:58:50;;;;;;;10.23;4.82;;;10.00;99.90;;;9.24;100.00;101901.53;4169333;28;20017;-72
2024/02/06 05:00:51;;;;;;;11.60;5.45;;;10.00;99.90;;;9.23;100.00;101898.03;4168134;28;20025;-71
2024/02/06 05:02:52;;;;;;;10.15;3.90;;;9.90;99.90;;;9.22;100.00;101899.03;4169306;28;20037;-72
2024/02/06 05:04:52;;;;;;;10.35;4.93;;;9.90;99.90;;;9.22;100.00;101900.81;4168978;28;20033;-71
2024/02/06 05:06:53;;;;;;;12.00;4.60;;;9.90;99.90;;;9.18;100.00;101896.72;4169302;28;20053;-72
2024/02/06 05:08:54;;;;;;;11.00;4.43;;;9.90;99.90;;;9.19;100.00;101899.25;4169175;28;20029;-71
2024/02/06 05:10:55;;;;;;;9.57;3.85;;;9.90;99.90;;;9.22;100.00;101900.81;4168802;28;20037;-72
2024/02/06 05:12:56;;;;;;;9.85;3.80;;;9.90;99.90;;;9.22;100.00;101900.81;4167350;28;20086;-71
2024/02/06 05:14:57;;;;;;;10.93;4.03;;;9.90;99.90;;;9.18;100.00;101900.22;4169061;28;20053;-72
2024/02/06 05:16:58;;;;;;;15.13;4.38;;;9.90;99.90;;;9.20;100.00;101905.38;4167963;28;20029;-71
2024/02/06 05:18:59;;;;;;;12.02;4.18;;;9.90;99.90;;;9.19;100.00;101903.69;4167994;28;20020;-72
2024/02/06 05:21:00;;;;;;;10.38;4.20;;;9.90;99.90;;;9.20;100.00;101905.38;4168799;28;20025;-71
2024/02/06 05:23:01;;;;;;;11.75;3.78;;;9.90;99.90;;;9.22;100.00;101909.56;4167700;28;20029;-72
2024/02/06 05:25:02;;;;;;;9.20;3.58;;;9.90;99.90;;;9.22;100.00;101908.72;4169070;28;20128;-72
2024/02/06 05:27:03;;;;;;;8.85;4.22;;;9.90;99.90;;;9.20;100.00;101895.66;4168933;28;20033;-71
2024/02/06 05:29:07;;;;;;;9.80;3.17;;;9.90;99.90;;;9.26;100.00;101899.59;4167636;28;20096;-71
2024/02/06 05:31:08;;;;;;;7.65;2.92;;;9.90;99.90;;;9.27;100.00;101902.13;4167577;28;20029;-72
2024/02/06 05:33:09;;;;;;;9.90;3.15;;;9.90;99.90;;;9.29;100.00;101894.09;4168939;28;20064;-72
2024/02/06 05:35:10;;;;;;;10.57;3.53;;;10.00;99.90;;;9.31;100.00;101892.19;4168664;28;20026;-72
2024/02/06 05:37:11;;;;;;;9.55;2.70;;;10.00;99.90;;;9.30;100.00;101891.34;4168888;28;20028;-72
2024/02/06 05:39:12;;;;;;;10.57;3.35;;;10.00;99.90;;;9.33;100.00;101892.91;4168606;28;20064;-71
2024/02/06 05:41:13;;;;;;;10.10;3.13;;;10.00;99.90;;;9.35;100.00;101893.63;4168866;28;20142;-71
2024/02/06 05:43:14;;;;;;;10.55;3.28;;;10.00;99.90;;;9.37;100.00;101884.66;4168212;28;20026;-72
2024/02/06 05:45:15;;;;;;;6.55;3.30;;;10.00;99.90;;;9.40;100.00;101886.22;4167349;28;20029;-72
2024/02/06 05:47:18;;;;;;;7.03;3.42;;;10.10;99.90;;;9.38;100.00;101888.09;4168672;28;20025;-72
2024/02/06 05:49:19;;;;;;;9.93;2.88;;;10.10;99.90;;;9.37;100.00;101884.66;4167335;28;20021;-71
2024/02/06 05:51:20;;;;;;;7.57;3.00;;;10.10;99.90;;;9.39;100.00;101889.78;4167302;28;20056;-72
2024/02/06 05:53:21;;;;;;;9.85;3.30;;;10.10;99.90;;;9.41;100.00;101896.63;4168531;28;20493;-71
2024/02/06 05:55:22;;;;;;;9.50;3.40;;;10.10;99.90;;;9.41;100.00;101888.72;4168569;28;20026;-72
2024/02/06 05:57:23;;;;;;;11.80;3.17;;;10.10;99.90;;;9.42;100.00;101887.75;4168843;28;20144;-72
2024/02/06 05:59:25;;;;;;;14.13;3.28;;;10.10;99.90;;;9.46;100.00;101891.00;4168656;28;20021;-72
2024/02/06 06:01:25;;;;;;;12.80;3.10;;;10.10;99.90;;;9.46;100.00;101883.09;4167306;28;20037;-71
2024/02/06 06:03:26;;;;;;;9.85;3.25;;;10.10;99.90;;;9.47;100.00;101889.22;4168473;28;20497;-72
2024/02/06 06:05:27;;;;;;;9.15;2.83;;;10.10;99.90;;;9.47;100.00;101884.75;4167332;28;20025;-72
2024/02/06 06:07:28;;;;;;;7.07;2.55;;;10.10;99.90;;;9.46;100.00;101880.47;4167473;28;20038;-72
2024/02/06 06:09:29;;;;;;;8.75;2.55;;;10.10;99.90;;;9.50;100.00;101881.06;4167335;28;20513;-72
2024/02/06 06:11:30;;;;;;;8.13;2.53;;;10.20;99.90;;;9.48;100.00;101873.28;4168277;28;20036;-72
2024/02/06 06:13:33;;;;;;;7.45;2.67;;;10.20;99.90;;;9.47;100.00;101868.94;4168569;28;20389;-71
2024/02/06 06:15:34;;;;;;;8.25;2.50;;;10.20;99.90;;;9.48;100.00;101872.44;4168620;28;20048;-72
2024/02/06 06:17:35;;;;;;;10.38;2.90;;;10.10;99.90;;;9.48;100.00;101883.81;4167336;28;20025;-72
2024/02/06 06:19:36;;;;;;;7.10;2.47;;;10.10;99.90;;;9.47;100.00;101879.50;4167059;28;20586;-72
2024/02/06 06:21:38;;;;;;;7.18;2.15;;;10.10;99.90;;;9.49;100.00;101874.13;4168359;28;20026;-71
2024/02/06 06:23:38;;;;;;;13.00;3.00;;;10.10;99.90;;;9.46;100.00;101875.19;4167168;28;20028;-71
2024/02/06 06:25:39;;;;;;;12.55;2.65;;;10.20;99.90;;;9.47;100.00;101874.22;4168397;28;20037;-72
2024/02/06 06:27:43;;;;;;;9.23;2.20;;;10.10;99.90;;;9.47;100.00;101887.38;4168509;28;20021;-71
2024/02/06 06:29:45;;;;;;;10.15;2.60;;;10.10;99.90;;;9.44;100.00;101877.09;4167375;28;20025;-72
2024/02/06 06:31:46;;;;;;;9.60;2.35;;;10.10;99.90;;;9.44;100.00;101877.94;4168541;28;20030;-72
2024/02/06 06:33:47;;;;;;;9.65;3.15;;;10.10;99.90;;;9.46;100.00;101880.47;4150765;28;20029;-71
2024/02/06 06:35:48;;;;;;;6.38;2.22;;;10.10;99.90;;;9.42;100.00;101869.34;4168003;28;20033;-72
2024/02/06 06:37:49;;;;;;;9.55;2.88;;;10.10;99.90;;;9.36;100.00;101853.16;4167252;28;20036;-72
2024/02/06 06:39:50;;;;;;;9.38;2.67;;;10.10;99.90;;;9.41;100.00;101854.47;4168276;28;20500;-71
2024/02/06 06:41:51;;;;;;;14.02;3.03;;;10.10;99.90;;;9.38;100.00;101856.50;4168347;28;20033;-71
2024/02/06 06:43:54;;;;;;;7.00;2.22;;;10.10;99.90;;;9.30;100.00;101846.59;4167841;28;20033;-72
2024/02/06 06:45:55;;;;;;;15.43;3.33;;;10.00;99.90;;;9.19;100.00;101835.25;4166914;28;20520;-72
2024/02/06 06:47:56;;;;;;;11.38;2.97;;;9.90;99.90;;;9.12;100.00;101834.03;4168235;28;20072;-72
2024/02/06 06:49:57;;;;;;;11.65;2.60;;;9.80;99.90;;;9.04;100.00;101836.44;4166724;28;20064;-71
2024/02/06 06:51:58;;;;;;;11.98;2.63;;;9.80;99.90;;;8.99;100.00;101838.59;4168013;28;20493;-71
2024/02/06 06:53:58;;;;;;;11.05;2.80;;;9.70;99.90;;;8.94;100.00;101840.72;4168422;28;20040;-71
2024/02/06 06:55:59;;;;;;;10.50;2.50;;;9.70;99.90;;;8.85;100.00;101839.66;4170398;28;20024;-71
2024/02/06 06:58:00;;;;;;;12.15;3.53;;;9.60;99.90;;;8.84;100.00;101836.16;4171356;28;20025;-71
2024/02/06 07:00:03;;;;;;;14.60;3.20;;;9.60;99.90;;;8.88;100.00;101826.25;4171151;28;20050;-71
2024/02/06 07:02:04;;;;;;;11.85;3.20;;;9.60;99.90;;;8.92;100.00;101826.84;4157134;28;20517;-71
2024/02/06 07:04:05;;;;;;;8.88;2.33;;;9.60;99.90;;;8.89;100.00;101834.03;4171192;28;20029;-72
2024/02/06 07:06:09;;;;;;;12.90;2.42;;;9.60;99.90;;;8.89;100.00;101836.66;4170924;28;20026;-71
2024/02/06 07:08:10;;;;;;;;;;;9.60;99.90;;;8.82;100.00;101829.34;4170170;28;20163;-71
2024/02/06 07:10:11;;;;;;;11.13;2.40;;;9.60;99.90;;;8.92;100.00;101850.53;4171024;28;20284;-72
2024/02/06 07:12:12;;;;;;;12.27;2.13;;;9.60;99.90;;;8.93;100.00;101857.50;4170855;28;20029;-72
2024/02/06 07:14:13;;;;;;;11.95;3.15;;;9.60;99.90;;;8.86;100.00;101860.59;4169322;28;20084;-71
2024/02/06 07:16:14;;;;;;;12.18;2.90;;;9.50;99.90;;;8.83;100.00;101849.47;4170919;28;20029;-71
2024/02/06 07:18:15;;;;;;;7.25;2.45;;;9.50;99.90;;;8.84;100.00;101856.41;4171057;28;20018;-72
2024/02/06 07:20:16;;;;;;;10.77;2.60;;;9.50;99.90;;;8.84;100.00;101866.94;4170367;28;20026;-72
2024/02/06 07:22:17;;;;;;;9.73;3.08;;;9.50;99.90;;;8.84;100.00;101867.75;4170857;28;20033;-71
2024/02/06 07:24:18;;;;;;;8.35;3.10;;;9.50;99.90;;;8.84;100.00;101866.94;4169644;28;20108;-72
2024/02/06 07:26:19;;;;;;;11.63;2.35;;;9.50;99.90;;;8.85;100.00;101858.91;4170041;28;20026;-72
2024/02/06 07:28:20;;;;;;;13.52;3.30;;;9.50;99.90;;;8.81;100.00;101854.00;4170805;28;20034;-71
2024/02/06 07:30:21;;;;;;;8.45;2.13;;;9.50;99.90;;;8.76;100.00;101858.75;4169524;28;20026;-72
2024/02/06 07:32:22;;;;;;;11.75;2.67;;;9.40;99.90;;;8.71;100.00;101863.53;4170622;28;20041;-71
2024/02/06 07:34:22;;;;;;;9.85;2.75;;;9.40;99.90;;;8.65;100.00;101853.50;4170177;28;20036;-72
2024/02/06 07:36:24;;;;;;;9.70;3.13;;;9.40;99.90;;;8.58;100.00;101841.75;4169428;28;20021;-71
2024/02/06 07:38:25;;;;;;;10.25;2.20;;;9.30;99.90;;;8.56;100.00;101852.41;4170537;28;20385;-72
2024/02/06 07:40:25;;;;;;;14.32;2.85;;;9.30;99.90;;;8.56;100.00;101855.03;4170444;28;20029;-72
2024/02/06 07:42:27;;;;;;;9.85;3.00;;;9.30;99.90;;;8.52;100.00;101858.00;4170593;28;20030;-71
2024/02/06 07:44:27;;;;;;;11.95;3.22;;;9.30;99.90;;;8.48;100.00;101853.94;4170667;28;20087;-72
2024/02/06 07:46:28;;;;;;;7.18;2.53;;;9.20;99.90;;;8.41;100.00;101856.19;4170364;28;20033;-72
2024/02/06 07:48:29;;;;;;;10.18;3.40;;;9.20;99.90;;;8.40;100.00;101853.66;4169112;28;20510;-72
2024/02/06 07:50:30;;;;;;;9.10;2.85;;;9.20;99.90;;;8.43;100.00;101851.63;4169965;28;20425;-71
2024/02/06 07:52:31;;;;;;;10.13;2.95;;;9.20;99.90;;;8.46;100.00;101847.94;4170502;28;20029;-71
2024/02/06 07:54:32;;;;;;;9.52;2.70;;;9.20;99.90;;;8.57;100.00;101858.50;4169213;28;20097;-72
2024/02/06 07:56:33;;;;;;;10.82;3.05;;;9.20;99.90;;;8.64;100.00;101860.53;4170339;28;20104;-72
2024/02/06 07:58:34;;;;;;;11.90;2.95;;;9.30;99.90;;;8.67;100.00;101860.31;4170191;28;20135;-72
2024/02/06 08:00:35;;;;;;;13.52;3.20;;;9.40;99.90;;;8.82;100.00;101863.56;4170199;28;20194;-72
2024/02/06 08:02:36;;;;;;;7.18;2.08;;;9.50;99.90;;;8.91;100.00;101865.47;4170307;28;20492;-72
2024/02/06 08:04:37;;;;;;;11.68;2.92;;;9.50;99.90;;;8.99;100.00;101859.66;4168831;28;20088;-71
2024/02/06 08:06:38;;;;;;;12.95;2.90;;;9.60;99.90;;;9.08;100.00;101851.03;4169440;28;20017;-71
2024/02/06 08:08:39;;;;;;;15.90;3.78;;;9.70;99.90;;;9.09;100.00;101836.91;4170256;28;20409;-72
2024/02/06 08:10:40;;;;;;;10.05;2.50;;;9.70;99.90;;;9.09;100.00;101837.75;4170096;28;20030;-72
2024/02/06 08:12:40;;;;;;;10.13;2.42;;;9.70;99.90;;;9.12;100.00;101845.41;4169979;28;20477;-72
2024/02/06 08:14:41;;;;;;;11.95;2.67;;;9.70;99.90;;;9.12;100.00;101841.94;4169974;28;20057;-72
2024/02/06 08:16:43;;;;;;;8.63;3.25;;;9.80;99.90;;;9.14;100.00;101842.66;4168959;28;20112;-72
2024/02/06 08:18:43;;;;;;;7.47;2.83;;;9.80;99.90;;;9.20;100.00;101848.25;4168994;28;20029;-72
2024/02/06 08:20:45;;;;;;;9.48;2.20;;;9.80;99.90;;;9.30;100.00;101843.97;4169968;28;20404;-72
2024/02/06 08:22:49;;;;;;;9.57;2.63;;;9.90;99.90;;;9.31;100.00;101850.06;4169842;28;20056;-71